createdAt,value
2019-02-19T00:00:20.203Z,101077.13
2019-02-19T00:02:46.198Z,101082.13
2019-02-19T00:05:12.240Z,101082.41
2019-02-19T00:07:38.219Z,101081.91
2019-02-19T00:10:04.195Z,101083.72
2019-02-19T00:12:30.264Z,101083.23
2019-02-19T00:14:56.291Z,101089.95
2019-02-19T00:17:22.308Z,101085.14
2019-02-19T00:19:48.319Z,101083.38
2019-02-19T00:22:14.321Z,101081.83
2019-02-19T00:24:40.302Z,101084.92
2019-02-19T00:27:06.579Z,101082.30
2019-02-19T00:29:32.567Z,101076.56
2019-02-19T00:31:58.540Z,101077.66
2019-02-19T00:34:24.540Z,101075.38
2019-02-19T00:36:50.621Z,101077.66
2019-02-19T00:39:16.601Z,101072.39
2019-02-19T00:41:42.607Z,101075.48
2019-02-19T00:44:08.600Z,101072.02
2019-02-19T00:46:34.577Z,101072.73
2019-02-19T00:49:00.555Z,101069.05
2019-02-19T00:51:26.569Z,101071.68
2019-02-19T00:53:52.618Z,101074.66
2019-02-19T00:56:18.682Z,101070.37
2019-02-19T00:58:44.675Z,101069.66
2019-02-19T01:01:10.669Z,101076.58
2019-02-19T01:03:36.759Z,101077.89
2019-02-19T01:06:02.772Z,101078.75
2019-02-19T01:08:28.773Z,101075.41
2019-02-19T01:10:54.763Z,101081.84
2019-02-19T01:13:20.884Z,101086.77
2019-02-19T01:15:46.864Z,101088.20
2019-02-19T01:18:12.846Z,101087.37
2019-02-19T01:20:38.845Z,101083.53
2019-02-19T01:23:04.821Z,101083.53
2019-02-19T01:25:30.973Z,101089.17
2019-02-19T01:27:56.953Z,101094.06
2019-02-19T01:30:22.957Z,101100.64
2019-02-19T01:32:48.958Z,101104.73
2019-02-19T01:35:14.936Z,101104.37
2019-02-19T01:37:40.926Z,101107.14
2019-02-19T01:40:06.917Z,101112.75
2019-02-19T01:42:32.892Z,101105.23
2019-02-19T01:44:58.876Z,101110.61
2019-02-19T01:47:25.082Z,101107.97
2019-02-19T01:49:51.219Z,101106.17
2019-02-19T01:52:17.218Z,101116.36
2019-02-19T01:54:43.205Z,101114.21
2019-02-19T01:57:09.226Z,101110.87
2019-02-19T01:59:35.198Z,101112.03
2019-02-19T02:02:01.245Z,101112.41
2019-02-19T02:04:27.288Z,101114.44
2019-02-19T02:06:53.264Z,101116.13
2019-02-19T02:09:19.247Z,101116.25
2019-02-19T02:11:45.235Z,101116.25
2019-02-19T02:14:11.299Z,101115.64
2019-02-19T02:16:37.337Z,101107.63
2019-02-19T02:19:03.321Z,101105.00
2019-02-19T02:21:29.308Z,101104.89
2019-02-19T02:23:55.287Z,101105.38
2019-02-19T02:26:21.298Z,101105.60
2019-02-19T02:28:47.278Z,101102.59
2019-02-19T02:31:13.267Z,101095.87
2019-02-19T02:33:39.321Z,101101.84
2019-02-19T02:36:05.305Z,101104.70
2019-02-19T02:38:31.492Z,101106.85
2019-02-19T02:40:57.488Z,101108.05
2019-02-19T02:43:23.484Z,101117.16
2019-02-19T02:45:53.448Z,101118.81
2019-02-19T02:48:17.194Z,101117.00
2019-02-19T02:50:43.190Z,101126.93
2019-02-19T02:53:09.171Z,101116.41
2019-02-19T02:55:35.160Z,101118.43
2019-02-19T02:58:01.244Z,101124.75
2019-02-19T03:00:27.260Z,101124.27
2019-02-19T03:02:53.248Z,101126.44
2019-02-19T03:05:19.230Z,101129.41
2019-02-19T03:07:45.219Z,101130.62
2019-02-19T03:10:11.210Z,101133.25
2019-02-19T03:12:37.336Z,101131.78
2019-02-19T03:15:03.303Z,101127.01
2019-02-19T03:17:29.280Z,101134.30
2019-02-19T03:19:55.264Z,101136.94
2019-02-19T03:22:21.236Z,101139.57
2019-02-19T03:24:47.211Z,101139.91
2019-02-19T03:27:13.198Z,101136.45
2019-02-19T03:29:39.188Z,101132.84
2019-02-19T03:32:05.176Z,101138.11
2019-02-19T03:34:31.283Z,101138.48
2019-02-19T03:36:57.268Z,101140.28
2019-02-19T03:39:23.291Z,101150.81
2019-02-19T03:41:49.271Z,101153.30
2019-02-19T03:44:15.274Z,101149.36
2019-02-19T03:46:41.440Z,101153.67
2019-02-19T03:49:07.428Z,101152.70
2019-02-19T03:51:33.424Z,101148.75
2019-02-19T03:53:59.412Z,101149.13
2019-02-19T03:56:25.415Z,101157.85
2019-02-19T03:58:51.472Z,101160.00
2019-02-19T04:01:17.448Z,101165.18
2019-02-19T04:03:43.511Z,101166.59
2019-02-19T04:06:09.496Z,101167.41
2019-02-19T04:08:35.585Z,101173.91
2019-02-19T04:11:01.587Z,101169.56
2019-02-19T04:13:27.635Z,101177.03
2019-02-19T04:15:53.631Z,101177.86
2019-02-19T04:18:19.616Z,101176.06
2019-02-19T04:20:45.604Z,101178.20
2019-02-19T04:23:11.596Z,101182.53
2019-02-19T04:25:37.585Z,101182.38
2019-02-19T04:28:03.606Z,101186.82
2019-02-19T04:30:29.574Z,101180.72
2019-02-19T04:32:55.545Z,101185.87
2019-02-19T04:35:21.558Z,101184.56
2019-02-19T04:37:47.538Z,101180.61
2019-02-19T04:40:13.530Z,101183.24
2019-02-19T04:42:39.514Z,101185.02
2019-02-19T04:45:05.616Z,101190.77
2019-02-19T04:47:31.600Z,101188.02
2019-02-19T04:49:57.591Z,101185.87
2019-02-19T04:52:23.606Z,101183.24
2019-02-19T04:54:49.607Z,101180.95
2019-02-19T04:57:15.600Z,101182.61
2019-02-19T04:59:41.663Z,101182.61
2019-02-19T05:02:07.675Z,101177.34
2019-02-19T05:04:33.720Z,101176.88
2019-02-19T05:06:59.705Z,101171.62
2019-02-19T05:09:25.709Z,101169.44
2019-02-19T05:11:51.687Z,101163.83
2019-02-19T05:14:17.688Z,101177.00
2019-02-19T05:16:43.694Z,101176.52
2019-02-19T05:19:09.758Z,101180.46
2019-02-19T05:21:35.738Z,101179.63
2019-02-19T05:24:01.774Z,101184.91
2019-02-19T05:26:27.750Z,101191.83
2019-02-19T05:28:53.728Z,101189.68
2019-02-19T05:31:19.729Z,101185.73
2019-02-19T05:33:45.744Z,101197.09
2019-02-19T05:36:11.716Z,101191.48
2019-02-19T05:38:37.718Z,101197.58
2019-02-19T05:41:03.768Z,101205.48
2019-02-19T05:43:29.731Z,101205.00
2019-02-19T05:45:55.714Z,101203.00
2019-02-19T05:48:21.773Z,101213.88
2019-02-19T05:50:47.748Z,101213.88
2019-02-19T05:53:13.980Z,101224.90
2019-02-19T05:55:39.960Z,101227.65
2019-02-19T05:58:05.975Z,101230.17
2019-02-19T06:00:31.967Z,101220.46
2019-02-19T06:02:58.055Z,101237.47
2019-02-19T06:05:24.045Z,101232.20
2019-02-19T06:07:50.024Z,101231.34
2019-02-19T06:10:16.006Z,101231.71
2019-02-19T06:12:42.029Z,101227.77
2019-02-19T06:15:08.085Z,101223.81
2019-02-19T06:17:34.130Z,101225.95
2019-02-19T06:20:00.362Z,101233.03
2019-02-19T06:22:26.407Z,101232.05
2019-02-19T06:24:52.402Z,101241.27
2019-02-19T06:27:18.412Z,101239.12
2019-02-19T06:29:44.418Z,101249.17
2019-02-19T06:32:10.426Z,101255.77
2019-02-19T06:34:36.504Z,101254.94
2019-02-19T06:37:02.479Z,101255.42
2019-02-19T06:39:28.576Z,101258.88
2019-02-19T06:41:54.565Z,101267.62
2019-02-19T06:44:20.560Z,101263.81
2019-02-19T06:46:46.557Z,101265.95
2019-02-19T06:49:12.548Z,101273.86
2019-02-19T06:51:38.621Z,101274.34
2019-02-19T06:54:04.643Z,101277.44
2019-02-19T06:56:30.668Z,101282.70
2019-02-19T06:58:56.759Z,101285.00
2019-02-19T07:01:22.847Z,101286.66
2019-02-19T07:03:48.884Z,101288.95
2019-02-19T07:06:14.957Z,101292.41
2019-02-19T07:08:40.944Z,101292.78
2019-02-19T07:11:06.956Z,101294.56
2019-02-19T07:13:32.943Z,101304.27
2019-02-19T07:15:58.952Z,101306.06
2019-02-19T07:18:24.937Z,101317.58
2019-02-19T07:20:50.960Z,101318.41
2019-02-19T07:23:16.935Z,101312.77
2019-02-19T07:25:42.942Z,101322.95
2019-02-19T07:28:08.986Z,101323.79
2019-02-19T07:30:35.077Z,101328.34
2019-02-19T07:33:01.080Z,101323.42
2019-02-19T07:35:27.099Z,101332.16
2019-02-19T07:37:53.080Z,101335.16
2019-02-19T07:40:20.139Z,101336.11
2019-02-19T07:42:46.159Z,101332.16
2019-02-19T07:45:12.160Z,101339.12
2019-02-19T07:47:38.132Z,101341.27
2019-02-19T07:50:04.128Z,101347.02
2019-02-19T07:52:30.120Z,101355.75
2019-02-19T07:54:56.107Z,101353.95
2019-02-19T07:57:22.121Z,101355.61
2019-02-19T07:59:48.123Z,101349.51
2019-02-19T08:02:14.138Z,101355.75
2019-02-19T08:04:40.188Z,101364.00
2019-02-19T08:07:06.240Z,101369.27
2019-02-19T08:09:32.238Z,101371.42
2019-02-19T08:11:58.313Z,101371.91
2019-02-19T08:14:24.330Z,101373.70
2019-02-19T08:16:50.365Z,101375.02
2019-02-19T08:19:16.368Z,101378.98
2019-02-19T08:21:42.422Z,101380.78
2019-02-19T08:24:08.396Z,101390.45
2019-02-19T08:26:34.415Z,101387.94
2019-02-19T08:29:07.118Z,101390.31
2019-02-19T08:31:28.226Z,101400.48
2019-02-19T08:33:54.204Z,101396.77
2019-02-19T08:36:20.187Z,101401.44
2019-02-19T08:38:46.173Z,101400.24
2019-02-19T08:41:12.289Z,101402.96
2019-02-19T08:43:38.308Z,101404.52
2019-02-19T08:46:04.306Z,101406.78
2019-02-19T08:48:31.379Z,101402.33
2019-02-19T08:50:57.399Z,101398.84
2019-02-19T08:53:23.380Z,101404.59
2019-02-19T08:55:49.384Z,101411.91
2019-02-19T08:58:15.371Z,101407.35
2019-02-19T09:00:41.368Z,101421.02
2019-02-19T09:03:07.358Z,101424.48
2019-02-19T09:05:33.354Z,101418.62
2019-02-19T09:07:59.323Z,101421.19
2019-02-19T09:10:25.373Z,101428.12
2019-02-19T09:12:51.384Z,101423.00
2019-02-19T09:15:17.362Z,101423.60
2019-02-19T09:17:51.303Z,101423.98
2019-02-19T09:20:11.175Z,101429.83
2019-02-19T09:22:37.273Z,101427.90
2019-02-19T09:25:03.297Z,101430.53
2019-02-19T09:27:29.279Z,101427.16
2019-02-19T09:29:55.264Z,101430.50
2019-02-19T09:32:21.262Z,101428.12
2019-02-19T09:34:47.249Z,101428.24
2019-02-19T09:37:13.232Z,101431.59
2019-02-19T09:39:39.245Z,101428.47
2019-02-19T09:42:05.372Z,101430.62
2019-02-19T09:44:31.374Z,101430.13
2019-02-19T09:46:58.738Z,101431.45
2019-02-19T09:49:24.767Z,101426.51
2019-02-19T09:51:50.845Z,101421.45
2019-02-19T09:54:16.933Z,101432.84
2019-02-19T09:56:42.991Z,101430.58
2019-02-19T09:59:08.967Z,101428.28
2019-02-19T10:01:34.980Z,101428.66
2019-02-19T10:04:01.022Z,101431.86
2019-02-19T10:06:27.041Z,101433.17
2019-02-19T10:08:53.076Z,101432.69
2019-02-19T10:11:19.067Z,101435.62
2019-02-19T10:13:45.049Z,101433.68
2019-02-19T10:16:11.027Z,101429.80
2019-02-19T10:18:37.028Z,101437.23
2019-02-19T10:21:03.044Z,101439.42
2019-02-19T10:23:29.068Z,101438.26
2019-02-19T10:25:55.201Z,101438.14
2019-02-19T10:28:21.185Z,101436.72
2019-02-19T10:30:47.183Z,101434.56
2019-02-19T10:33:13.195Z,101435.89
2019-02-19T10:35:39.198Z,101438.67
2019-02-19T10:38:05.288Z,101438.52
2019-02-19T10:40:31.259Z,101440.33
2019-02-19T10:42:57.257Z,101444.17
2019-02-19T10:45:23.261Z,101435.17
2019-02-19T10:47:49.238Z,101445.00
2019-02-19T10:50:15.307Z,101447.50
2019-02-19T10:52:41.350Z,101439.99
2019-02-19T10:55:07.424Z,101442.63
2019-02-19T10:57:33.403Z,101442.93
2019-02-19T11:03:10.353Z,101440.73
2019-02-19T11:05:36.344Z,101435.91
2019-02-19T11:08:02.321Z,101438.43
2019-02-19T11:10:28.310Z,101432.09
2019-02-19T11:12:54.304Z,101434.02
2019-02-19T11:15:20.329Z,101429.09
2019-02-19T11:17:46.378Z,101433.53
2019-02-19T11:20:12.405Z,101431.50
2019-02-19T11:22:38.501Z,101426.00
2019-02-19T11:25:04.580Z,101425.78
2019-02-19T11:27:30.693Z,101425.06
2019-02-19T11:29:56.781Z,101421.10
2019-02-19T11:32:22.778Z,101421.10
2019-02-19T11:34:48.832Z,101424.45
2019-02-19T11:37:14.838Z,101417.52
2019-02-19T11:39:40.816Z,101423.14
2019-02-19T11:42:06.807Z,101416.20
2019-02-19T11:44:32.776Z,101416.69
2019-02-19T11:46:58.795Z,101419.55
2019-02-19T11:49:24.826Z,101421.10
2019-02-19T11:51:50.814Z,101420.16
2019-02-19T11:54:16.833Z,101421.81
2019-02-19T11:56:42.913Z,101419.17
2019-02-19T11:59:08.956Z,101425.92
2019-02-19T12:01:34.936Z,101422.30
2019-02-19T12:04:01.009Z,101423.74
2019-02-19T12:06:27.035Z,101421.25
2019-02-19T12:08:53.074Z,101423.41
2019-02-19T12:11:20.239Z,101427.02
2019-02-19T12:13:46.266Z,101428.23
2019-02-19T12:16:12.256Z,101421.52
2019-02-19T12:18:46.007Z,101425.81
2019-02-19T12:21:05.954Z,101426.87
2019-02-19T12:23:31.979Z,101428.69
2019-02-19T12:25:58.073Z,101423.74
2019-02-19T12:28:24.072Z,101423.14
2019-02-19T12:30:50.062Z,101425.70
2019-02-19T12:33:16.086Z,101419.56
2019-02-19T12:35:42.095Z,101426.16
2019-02-19T12:38:08.179Z,101426.38
2019-02-19T12:40:34.198Z,101427.36
2019-02-19T12:43:00.229Z,101428.08
2019-02-19T12:45:26.308Z,101426.05
2019-02-19T12:47:52.290Z,101420.38
2019-02-19T12:50:18.284Z,101423.14
2019-02-19T12:52:44.288Z,101425.29
2019-02-19T12:55:10.331Z,101420.88
2019-02-19T12:57:36.874Z,101429.35
2019-02-19T13:00:03.094Z,101419.89
2019-02-19T13:02:29.100Z,101423.95
2019-02-19T13:04:55.199Z,101425.05
2019-02-19T13:07:21.253Z,101417.52
2019-02-19T13:09:47.349Z,101421.64
2019-02-19T13:12:13.352Z,101421.27
2019-02-19T13:14:39.333Z,101418.55
2019-02-19T13:17:05.334Z,101426.84
2019-02-19T13:19:32.091Z,101425.19
2019-02-19T13:21:58.267Z,101425.56
2019-02-19T13:24:24.252Z,101419.42
2019-02-19T13:26:50.220Z,101418.59
2019-02-19T13:29:16.251Z,101426.66
2019-02-19T13:31:42.235Z,101425.11
2019-02-19T13:34:08.219Z,101421.88
2019-02-19T13:36:34.196Z,101427.75
2019-02-19T13:39:00.216Z,101424.17
2019-02-19T13:41:26.212Z,101423.45
2019-02-19T13:43:52.201Z,101418.30
2019-02-19T13:46:18.187Z,101421.65
2019-02-19T13:48:44.278Z,101426.81
2019-02-19T13:51:10.251Z,101425.12
2019-02-19T13:53:36.324Z,101428.73
2019-02-19T13:56:02.336Z,101427.41
2019-02-19T13:58:28.496Z,101429.83
2019-02-19T14:00:54.531Z,101432.42
2019-02-19T14:03:20.596Z,101428.84
2019-02-19T14:05:46.729Z,101426.89
2019-02-19T14:08:14.774Z,101430.61
2019-02-19T14:10:40.448Z,101431.52
2019-02-19T14:13:06.583Z,101431.78
2019-02-19T14:15:32.820Z,101428.05
2019-02-19T14:17:58.894Z,101428.27
2019-02-19T14:20:24.874Z,101435.44
2019-02-19T14:22:50.943Z,101431.36
2019-02-19T14:25:16.919Z,101434.72
2019-02-19T14:27:42.969Z,101435.05
2019-02-19T14:30:08.967Z,101440.22
2019-02-19T14:32:35.032Z,101435.28
2019-02-19T14:35:01.039Z,101437.92
2019-02-19T14:37:27.035Z,101435.39
2019-02-19T14:39:53.034Z,101432.26
2019-02-19T14:42:19.038Z,101430.56
2019-02-19T14:44:45.035Z,101433.69
2019-02-19T14:47:11.057Z,101436.10
2019-02-19T14:49:37.565Z,101437.16
2019-02-19T14:52:03.869Z,101447.98
2019-02-19T14:54:29.897Z,101443.75
2019-02-19T14:56:55.884Z,101444.84
2019-02-19T14:59:21.961Z,101436.66
2019-02-19T15:01:47.945Z,101441.45
2019-02-19T15:04:13.966Z,101437.27
2019-02-19T15:06:40.041Z,101435.56
2019-02-19T15:09:06.053Z,101440.02
2019-02-19T15:11:32.063Z,101435.89
2019-02-19T15:13:58.123Z,101433.37
2019-02-19T15:16:24.166Z,101431.48
2019-02-19T15:18:50.180Z,101437.11
2019-02-19T15:21:16.229Z,101442.88
2019-02-19T15:23:42.244Z,101441.56
2019-02-19T15:26:08.289Z,101440.58
2019-02-19T15:28:34.290Z,101446.23
2019-02-19T15:31:00.329Z,101436.63
2019-02-19T15:33:26.316Z,101439.75
2019-02-19T15:35:52.288Z,101442.05
2019-02-19T15:38:20.208Z,101441.56
2019-02-19T15:40:49.271Z,101437.44
2019-02-19T15:43:16.620Z,101442.00
2019-02-19T15:45:42.781Z,101446.01
2019-02-19T15:48:08.777Z,101450.35
2019-02-19T15:50:34.770Z,101447.27
2019-02-19T15:53:00.814Z,101449.68
2019-02-19T15:55:26.923Z,101445.27
2019-02-19T15:57:52.985Z,101448.52
2019-02-19T16:00:18.996Z,101449.16
2019-02-19T16:02:44.974Z,101451.57
2019-02-19T16:05:10.995Z,101450.36
2019-02-19T16:07:36.996Z,101450.97
2019-02-19T16:10:03.068Z,101450.25
2019-02-19T16:12:29.118Z,101456.84
2019-02-19T16:14:55.271Z,101456.77
2019-02-19T16:17:21.383Z,101448.86
2019-02-19T16:19:56.613Z,101454.13
2019-02-19T16:22:15.182Z,101459.64
2019-02-19T16:24:41.211Z,101460.87
2019-02-19T16:27:07.205Z,101457.52
2019-02-19T16:29:33.205Z,101460.01
2019-02-19T16:31:59.187Z,101462.30
2019-02-19T16:34:25.311Z,101466.72
2019-02-19T16:36:51.335Z,101466.72
2019-02-19T16:39:17.335Z,101468.03
2019-02-19T16:41:43.378Z,101464.22
2019-02-19T16:44:09.394Z,101457.66
2019-02-19T16:46:35.402Z,101465.57
2019-02-19T16:49:01.446Z,101467.72
2019-02-19T16:51:27.477Z,101476.46
2019-02-19T16:53:53.467Z,101474.42
2019-02-19T16:56:19.475Z,101481.02
2019-02-19T16:58:45.461Z,101479.12
2019-02-19T17:01:11.484Z,101482.83
2019-02-19T17:03:37.573Z,101480.30
2019-02-19T17:06:03.618Z,101474.68
2019-02-19T17:08:29.601Z,101479.47
2019-02-19T17:10:55.597Z,101481.88
2019-02-19T17:13:21.591Z,101473.85
2019-02-19T17:15:47.580Z,101471.81
2019-02-19T17:18:13.580Z,101476.37
2019-02-19T17:20:39.553Z,101478.66
2019-02-19T17:23:05.659Z,101481.75
2019-02-19T17:25:31.683Z,101483.56
2019-02-19T17:27:59.161Z,101487.17
2019-02-19T17:30:25.238Z,101497.44
2019-02-19T17:32:51.317Z,101500.55
2019-02-19T17:35:17.441Z,101498.52
2019-02-19T17:37:43.538Z,101504.13
2019-02-19T17:40:09.554Z,101507.00
2019-02-19T17:42:35.581Z,101509.52
2019-02-19T17:45:01.609Z,101511.45
2019-02-19T17:47:27.623Z,101511.67
2019-02-19T17:49:53.634Z,101507.63
2019-02-19T17:52:19.725Z,101508.70
2019-02-19T17:54:45.752Z,101509.08
2019-02-19T17:57:11.894Z,101513.41
2019-02-19T17:59:37.950Z,101507.41
2019-02-19T18:02:04.010Z,101513.03
2019-02-19T18:04:29.997Z,101517.36
2019-02-19T18:06:56.117Z,101522.87
2019-02-19T18:09:22.195Z,101524.55
2019-02-19T18:11:48.309Z,101523.82
2019-02-19T18:14:14.399Z,101525.48
2019-02-19T18:16:40.396Z,101531.36
2019-02-19T18:19:06.461Z,101534.14
2019-02-19T18:21:32.434Z,101533.42
2019-02-19T18:23:58.493Z,101532.93
2019-02-19T18:26:24.523Z,101530.78
2019-02-19T18:28:50.531Z,101541.81
2019-02-19T18:31:16.558Z,101546.72
2019-02-19T18:33:42.568Z,101544.08
2019-02-19T18:36:08.642Z,101545.05
2019-02-19T18:38:34.726Z,101543.36
2019-02-19T18:41:00.801Z,101549.61
2019-02-19T18:43:26.813Z,101546.59
2019-02-19T18:45:52.922Z,101543.61
2019-02-19T18:48:18.921Z,101549.37
2019-02-19T18:50:44.983Z,101544.58
2019-02-19T18:53:11.011Z,101543.38
2019-02-19T18:55:37.001Z,101543.86
2019-02-19T18:58:02.971Z,101543.97
2019-02-19T19:00:28.992Z,101537.03
2019-02-19T19:02:54.991Z,101544.45
2019-02-19T19:05:21.022Z,101544.56
2019-02-19T19:07:47.052Z,101545.54
2019-02-19T19:10:13.076Z,101546.38
2019-02-19T19:12:39.081Z,101546.63
2019-02-19T19:15:05.144Z,101546.73
2019-02-19T19:17:31.214Z,101545.55
2019-02-19T19:19:57.350Z,101546.50
2019-02-19T19:22:23.433Z,101546.98
2019-02-19T19:24:49.497Z,101548.41
2019-02-19T19:27:15.484Z,101551.42
2019-02-19T19:29:41.471Z,101547.09
2019-02-19T19:32:07.480Z,101557.30
2019-02-19T19:34:33.575Z,101560.76
2019-02-19T19:36:59.634Z,101556.08
2019-02-19T19:39:25.656Z,101554.42
2019-02-19T19:41:51.659Z,101551.41
2019-02-19T19:44:17.688Z,101552.72
2019-02-19T19:46:43.871Z,101552.72
2019-02-19T19:49:09.948Z,101560.28
2019-02-19T19:51:35.962Z,101562.09
2019-02-19T19:54:01.942Z,101564.23
2019-02-19T19:56:27.935Z,101564.73
2019-02-19T19:58:53.940Z,101565.66
2019-02-19T20:01:19.967Z,101560.53
2019-02-19T20:03:46.286Z,101566.29
2019-02-19T20:06:12.393Z,101566.29
2019-02-19T20:08:38.401Z,101568.55
2019-02-19T20:11:04.466Z,101567.23
2019-02-19T20:13:30.657Z,101565.91
2019-02-19T20:15:56.784Z,101567.83
2019-02-19T20:18:22.848Z,101569.52
2019-02-19T20:20:48.917Z,101571.33
2019-02-19T20:23:15.041Z,101571.33
2019-02-19T20:25:41.183Z,101568.31
2019-02-19T20:28:07.272Z,101567.48
2019-02-19T20:30:33.492Z,101571.33
2019-02-19T20:32:59.513Z,101575.86
2019-02-19T20:35:25.521Z,101574.55
2019-02-19T20:37:54.087Z,101569.14
2019-02-19T20:40:19.358Z,101573.69
2019-02-19T20:42:45.569Z,101573.34
2019-02-19T20:45:11.601Z,101579.59
2019-02-19T20:47:37.613Z,101580.52
2019-02-19T20:50:03.677Z,101583.64
2019-02-19T20:52:29.744Z,101589.41
2019-02-19T20:54:55.729Z,101591.20
2019-02-19T20:57:21.753Z,101586.88
2019-02-19T20:59:47.969Z,101594.78
2019-02-19T21:02:14.017Z,101590.00
2019-02-19T21:04:40.018Z,101592.28
2019-02-19T21:07:06.000Z,101596.69
2019-02-19T21:09:41.194Z,101599.33
2019-02-19T21:12:00.817Z,101595.38
2019-02-19T21:14:26.841Z,101592.02
2019-02-19T21:16:52.903Z,101595.86
2019-02-19T21:19:19.103Z,101595.51
2019-02-19T21:21:45.326Z,101596.10
2019-02-19T21:24:11.432Z,101597.77
2019-02-19T21:26:37.493Z,101604.01
2019-02-19T21:29:03.706Z,101598.84
2019-02-19T21:31:29.740Z,101600.54
2019-02-19T21:33:55.802Z,101600.16
2019-02-19T21:36:21.987Z,101598.84
2019-02-19T21:38:48.009Z,101595.03
2019-02-19T21:41:14.034Z,101594.17
2019-02-19T21:43:40.039Z,101588.06
2019-02-19T21:46:06.028Z,101591.19
2019-02-19T21:48:32.105Z,101595.24
2019-02-19T21:50:58.161Z,101597.05
2019-02-19T21:53:24.138Z,101600.52
2019-02-19T21:55:50.136Z,101595.38
2019-02-19T21:58:16.174Z,101603.28
2019-02-19T22:00:42.204Z,101602.45
2019-02-19T22:03:08.262Z,101593.69
2019-02-19T22:05:34.290Z,101598.12
2019-02-19T22:08:00.335Z,101599.09
2019-02-19T22:10:26.340Z,101596.91
2019-02-19T22:12:52.390Z,101604.81
2019-02-19T22:15:18.483Z,101597.05
2019-02-19T22:17:44.534Z,101602.31
2019-02-19T22:20:10.549Z,101600.27
2019-02-19T22:22:36.674Z,101599.30
2019-02-19T22:25:02.692Z,101595.00
2019-02-19T22:27:28.695Z,101596.32
2019-02-19T22:29:54.779Z,101597.29
2019-02-19T22:32:20.896Z,101604.33
2019-02-19T22:34:46.907Z,101604.47
2019-02-19T22:37:12.909Z,101601.45
2019-02-19T22:39:38.894Z,101598.81
2019-02-19T22:42:04.894Z,101603.25
2019-02-19T22:44:30.890Z,101609.49
2019-02-19T22:46:56.912Z,101603.39
2019-02-19T22:49:22.907Z,101600.75
2019-02-19T22:51:48.901Z,101600.38
2019-02-19T22:54:14.908Z,101602.66
2019-02-19T22:56:41.101Z,101607.06
2019-02-19T22:59:07.221Z,101600.48
2019-02-19T23:01:34.225Z,101606.23
2019-02-19T23:04:00.249Z,101611.98
2019-02-19T23:06:26.237Z,101614.13
2019-02-19T23:08:52.329Z,101619.96
2019-02-19T23:11:18.333Z,101616.01
2019-02-19T23:13:44.312Z,101620.45
2019-02-19T23:16:10.323Z,101620.09
2019-02-19T23:18:36.353Z,101618.39
2019-02-19T23:21:02.386Z,101620.58
2019-02-19T23:23:28.361Z,101625.84
2019-02-19T23:25:54.359Z,101626.44
2019-02-19T23:28:20.344Z,101623.31
2019-02-19T23:30:46.395Z,101621.27
2019-02-19T23:33:12.382Z,101624.73
2019-02-19T23:35:38.396Z,101627.38
2019-02-19T23:38:04.404Z,101622.59
2019-02-19T23:40:30.400Z,101628.83
2019-02-19T23:42:56.434Z,101630.59
2019-02-19T23:45:22.451Z,101632.88
2019-02-19T23:47:48.463Z,101628.58
2019-02-19T23:50:14.512Z,101631.31
2019-02-19T23:52:40.506Z,101634.30
2019-02-19T23:55:06.507Z,101639.80
2019-02-19T23:57:32.503Z,101639.32
2019-02-19T23:59:58.493Z,101643.65
